createdAt,value
2023-03-11T00:00:23.658Z,3.58
2023-03-11T00:02:52.688Z,4.70
2023-03-11T00:05:26.805Z,3.75
2023-03-11T00:07:54.406Z,2.50
2023-03-11T00:10:25.938Z,3.42
2023-03-11T00:12:53.768Z,4.32
2023-03-11T00:15:21.510Z,3.05
2023-03-11T00:17:49.874Z,3.42
2023-03-11T00:20:31.523Z,3.92
2023-03-11T00:22:58.816Z,4.32
2023-03-11T00:25:29.100Z,4.72
2023-03-11T00:27:56.803Z,4.38
2023-03-11T00:30:24.975Z,4.18
2023-03-11T00:32:53.872Z,5.10
2023-03-11T00:35:26.920Z,4.35
2023-03-11T00:37:57.255Z,3.20
2023-03-11T00:40:26.664Z,8.02
2023-03-11T00:42:53.762Z,4.47
2023-03-11T00:45:20.971Z,1.88
2023-03-11T00:47:48.223Z,5.10
2023-03-11T00:50:23.227Z,4.78
2023-03-11T00:52:51.592Z,4.53
2023-03-11T00:55:24.735Z,4.63
2023-03-11T00:57:56.785Z,3.28
2023-03-11T01:00:25.191Z,4.95
2023-03-11T01:02:53.097Z,2.13
2023-03-11T01:05:22.213Z,2.05
2023-03-11T01:07:49.898Z,2.75
2023-03-11T01:10:17.501Z,2.90
2023-03-11T01:12:44.758Z,3.95
2023-03-11T01:15:25.432Z,6.47
2023-03-11T01:17:53.057Z,3.80
2023-03-11T01:20:20.645Z,3.13
2023-03-11T01:22:48.100Z,3.85
2023-03-11T01:25:17.561Z,4.30
2023-03-11T01:27:45.071Z,2.08
2023-03-11T01:30:16.551Z,5.28
2023-03-11T01:32:43.842Z,4.05
2023-03-11T01:35:16.035Z,3.35
2023-03-11T01:37:43.365Z,4.03
2023-03-11T01:40:26.141Z,2.67
2023-03-11T01:42:53.526Z,3.53
2023-03-11T01:45:33.608Z,3.25
2023-03-11T01:48:00.904Z,3.65
2023-03-11T01:50:36.159Z,3.03
2023-03-11T01:53:05.596Z,2.78
2023-03-11T01:55:33.094Z,2.15
2023-03-11T01:58:04.853Z,2.03
2023-03-11T02:00:31.967Z,5.20
2023-03-11T02:03:02.776Z,3.47
2023-03-11T02:05:29.916Z,3.70
2023-03-11T02:07:58.362Z,4.32
2023-03-11T02:10:25.795Z,2.97
2023-03-11T02:12:53.386Z,1.55
2023-03-11T02:15:20.540Z,1.67
2023-03-11T02:17:47.777Z,4.75
2023-03-11T02:20:28.374Z,3.05
2023-03-11T02:22:57.373Z,2.92
2023-03-11T02:25:43.292Z,3.25
2023-03-11T02:28:14.220Z,3.53
2023-03-11T02:30:43.481Z,5.15
2023-03-11T02:33:11.964Z,1.90
2023-03-11T02:35:39.116Z,3.00
2023-03-11T02:38:06.304Z,2.30
2023-03-11T02:40:50.519Z,6.20
2023-03-11T02:43:23.570Z,3.33
2023-03-11T02:45:51.231Z,3.05
2023-03-11T02:48:19.668Z,2.85
2023-03-11T02:50:47.483Z,3.55
2023-03-11T02:53:15.026Z,3.00
2023-03-11T02:55:42.210Z,2.75
2023-03-11T02:58:09.313Z,4.47
2023-03-11T03:00:37.064Z,4.45
2023-03-11T03:03:04.433Z,3.85
2023-03-11T03:05:31.880Z,3.78
2023-03-11T03:07:59.094Z,2.80
2023-03-11T03:10:26.265Z,4.15
2023-03-11T03:12:55.718Z,6.03
2023-03-11T03:15:22.831Z,2.05
2023-03-11T03:17:51.644Z,2.08
2023-03-11T03:20:19.017Z,2.53
2023-03-11T03:22:46.116Z,2.90
2023-03-11T03:25:13.352Z,6.38
2023-03-11T03:27:40.565Z,1.63
2023-03-11T03:30:09.576Z,1.83
2023-03-11T03:32:37.429Z,4.35
2023-03-11T03:35:05.338Z,1.90
2023-03-11T03:37:37.272Z,1.52
2023-03-11T03:40:08.098Z,1.98
2023-03-11T03:42:36.347Z,1.42
2023-03-11T03:45:06.119Z,2.03
2023-03-11T03:47:34.566Z,1.52
2023-03-11T03:50:04.742Z,2.30
2023-03-11T03:52:31.908Z,2.72
2023-03-11T03:54:58.990Z,1.77
2023-03-11T03:57:26.118Z,1.65
2023-03-11T03:59:53.192Z,2.00
2023-03-11T04:02:20.406Z,1.25
2023-03-11T04:04:47.845Z,3.47
2023-03-11T04:07:15.157Z,1.60
2023-03-11T04:09:43.938Z,2.65
2023-03-11T04:12:15.512Z,1.85
2023-03-11T04:14:42.704Z,6.07
2023-03-11T04:17:12.792Z,2.25
2023-03-11T04:19:40.278Z,2.63
2023-03-11T04:22:07.640Z,1.52
2023-03-11T04:24:35.003Z,2.20
2023-03-11T04:27:02.426Z,2.05
2023-03-11T04:29:29.581Z,1.60
2023-03-11T04:31:56.707Z,1.73
2023-03-11T04:34:23.953Z,3.67
2023-03-11T04:36:55.178Z,2.83
2023-03-11T04:39:22.558Z,3.78
2023-03-11T04:41:49.712Z,0.93
2023-03-11T04:44:16.913Z,2.05
2023-03-11T04:46:44.064Z,2.85
2023-03-11T04:49:11.321Z,1.65
2023-03-11T04:51:38.783Z,4.65
2023-03-11T04:54:06.152Z,0.68
2023-03-11T04:56:33.579Z,5.25
2023-03-11T04:59:01.164Z,3.47
2023-03-11T05:01:28.291Z,14.23
2023-03-11T05:03:55.498Z,15.27
2023-03-11T05:06:22.557Z,3.33
2023-03-11T05:08:49.653Z,3.88
2023-03-11T05:11:16.765Z,2.22
2023-03-11T05:13:43.900Z,2.40
2023-03-11T05:16:11.091Z,3.95
2023-03-11T05:18:38.342Z,2.83
2023-03-11T05:21:05.688Z,3.20
2023-03-11T05:23:32.843Z,4.72
2023-03-11T05:25:59.988Z,2.88
2023-03-11T05:28:26.995Z,2.92
2023-03-11T05:30:54.147Z,2.67
2023-03-11T05:33:21.289Z,2.72
2023-03-11T05:35:48.895Z,2.42
2023-03-11T05:38:15.987Z,2.42
2023-03-11T05:40:43.076Z,2.58
2023-03-11T05:43:10.202Z,1.98
2023-03-11T05:45:37.343Z,3.58
2023-03-11T05:48:04.537Z,2.63
2023-03-11T05:50:31.680Z,2.08
2023-03-11T05:52:58.844Z,3.33
2023-03-11T05:57:44.667Z,4.10
2023-03-11T06:02:29.214Z,3.55
2023-03-11T06:04:56.317Z,2.17
2023-03-11T06:07:23.353Z,2.97
2023-03-11T06:09:50.862Z,4.22
2023-03-11T06:12:18.125Z,4.47
2023-03-11T06:14:45.102Z,3.22
2023-03-11T06:17:12.124Z,2.03
2023-03-11T06:19:39.168Z,2.40
2023-03-11T06:22:06.082Z,5.20
2023-03-11T06:24:33.206Z,3.40
2023-03-11T06:27:00.295Z,2.92
2023-03-11T06:29:28.966Z,2.55
2023-03-11T06:31:56.134Z,6.85
2023-03-11T06:34:23.901Z,6.28
2023-03-11T06:36:50.848Z,3.92
2023-03-11T06:39:17.848Z,4.50
2023-03-11T06:41:44.775Z,4.75
2023-03-11T06:44:11.954Z,4.30
2023-03-11T06:46:39.021Z,4.57
2023-03-11T06:49:06.092Z,6.82
2023-03-11T06:51:33.241Z,7.78
2023-03-11T06:54:00.258Z,3.83
2023-03-11T06:56:27.468Z,6.80
2023-03-11T06:58:55.013Z,5.03
2023-03-11T07:01:24.844Z,4.40
2023-03-11T07:03:52.557Z,4.72
2023-03-11T07:06:25.155Z,5.88
2023-03-11T07:08:53.272Z,7.28
2023-03-11T07:11:28.001Z,6.35
2023-03-11T07:13:55.404Z,7.97
2023-03-11T07:16:25.398Z,3.67
2023-03-11T07:18:54.573Z,5.55
2023-03-11T07:21:23.065Z,6.97
2023-03-11T07:23:55.360Z,7.85
2023-03-11T07:26:23.271Z,6.50
2023-03-11T07:28:50.685Z,5.15
2023-03-11T07:31:21.086Z,4.13
2023-03-11T07:33:48.136Z,13.38
2023-03-11T07:36:20.643Z,6.75
2023-03-11T07:38:48.722Z,8.98
2023-03-11T07:41:19.022Z,5.88
2023-03-11T07:43:46.184Z,9.43
2023-03-11T07:46:18.656Z,6.85
2023-03-11T07:51:07.407Z,10.10
2023-03-11T07:53:34.946Z,5.43
2023-03-11T07:56:02.767Z,11.10
2023-03-11T07:58:30.588Z,8.73
2023-03-11T08:01:03.021Z,6.85
2023-03-11T08:03:30.287Z,8.30
2023-03-11T08:05:57.216Z,15.15
2023-03-11T08:08:24.284Z,10.23
2023-03-11T08:10:51.334Z,11.77
2023-03-11T08:13:18.355Z,9.43
2023-03-11T08:20:48.268Z,11.38
2023-03-11T08:23:15.493Z,8.90
2023-03-11T08:25:42.510Z,9.63
2023-03-11T08:28:09.878Z,21.70
2023-03-11T08:30:37.753Z,9.23
2023-03-11T08:33:05.081Z,12.85
2023-03-11T08:35:32.650Z,12.75
2023-03-11T08:37:59.849Z,12.27
2023-03-11T08:40:26.800Z,11.80
2023-03-11T08:42:55.979Z,12.65
2023-03-11T08:45:22.954Z,14.68
2023-03-11T08:47:49.917Z,12.85
2023-03-11T08:50:20.257Z,14.30
2023-03-11T08:52:47.338Z,15.85
2023-03-11T08:55:17.683Z,15.43
2023-03-11T08:57:45.185Z,12.77
2023-03-11T09:00:13.439Z,10.73
2023-03-11T09:02:41.742Z,12.55
2023-03-11T09:05:09.508Z,18.52
2023-03-11T09:07:37.019Z,20.60
2023-03-11T09:10:04.539Z,19.70
2023-03-11T09:12:31.593Z,23.45
2023-03-11T09:14:58.679Z,18.40
2023-03-11T09:17:25.698Z,22.83
2023-03-11T09:19:52.720Z,19.40
2023-03-11T09:24:34.911Z,19.55
2023-03-11T09:27:02.760Z,22.13
2023-03-11T09:29:29.886Z,19.20
2023-03-11T09:31:56.833Z,15.70
2023-03-11T09:34:24.283Z,23.52
2023-03-11T09:36:51.390Z,22.40
2023-03-11T09:39:18.581Z,21.73
2023-03-11T09:42:19.955Z,18.38
2023-03-11T09:44:53.030Z,21.15
2023-03-11T09:47:38.919Z,23.13
2023-03-11T09:50:20.280Z,17.27
2023-03-11T09:53:11.809Z,23.83
2023-03-11T09:55:44.662Z,25.48
2023-03-11T09:58:36.679Z,37.35
2023-03-11T10:01:17.306Z,28.77
2023-03-11T10:03:45.862Z,23.25
2023-03-11T10:06:21.357Z,25.02
2023-03-11T10:08:53.002Z,33.30
2023-03-11T10:11:44.733Z,26.30
2023-03-11T10:14:32.624Z,30.15
2023-03-11T10:17:20.724Z,37.72
2023-03-11T10:20:14.231Z,34.00
2023-03-11T10:25:32.156Z,31.92
2023-03-11T10:28:20.796Z,38.92
2023-03-11T10:30:55.843Z,32.70
2023-03-11T10:33:35.910Z,31.30
2023-03-11T10:36:11.706Z,28.88
2023-03-11T10:38:47.970Z,37.75
2023-03-11T10:41:44.848Z,28.05
2023-03-11T10:44:35.103Z,34.97
2023-03-11T10:47:02.857Z,24.70
2023-03-11T10:49:30.263Z,31.67
2023-03-11T10:51:58.207Z,28.75
2023-03-11T10:54:31.527Z,25.90
2023-03-11T10:57:01.165Z,35.05
2023-03-11T10:59:53.074Z,30.60
2023-03-11T11:02:28.925Z,40.90
2023-03-11T11:05:32.870Z,33.63
2023-03-11T11:08:15.902Z,33.53
2023-03-11T11:10:57.565Z,31.88
2023-03-11T11:13:34.545Z,42.45
2023-03-11T11:16:21.203Z,38.63
2023-03-11T11:19:10.813Z,30.63
2023-03-11T11:21:58.144Z,26.83
2023-03-11T11:24:27.497Z,29.02
2023-03-11T11:27:16.104Z,42.65
2023-03-11T11:29:44.086Z,35.70
2023-03-11T11:32:19.197Z,39.63
2023-03-11T11:37:34.767Z,35.55
2023-03-11T11:40:12.355Z,32.72
2023-03-11T11:42:42.901Z,44.08
2023-03-11T11:45:19.222Z,33.42
2023-03-11T11:47:54.142Z,39.10
2023-03-11T11:50:27.273Z,40.78
2023-03-11T11:53:01.813Z,27.67
2023-03-11T11:55:30.894Z,31.08
2023-03-11T11:57:57.962Z,29.33
2023-03-11T12:00:37.920Z,32.50
2023-03-11T12:03:19.930Z,34.10
2023-03-11T12:05:58.990Z,21.00
2023-03-11T12:08:41.108Z,26.65
2023-03-11T12:11:14.784Z,28.58
2023-03-11T12:13:55.728Z,36.33
2023-03-11T12:16:42.358Z,29.90
2023-03-11T12:19:12.288Z,28.02
2023-03-11T12:22:00.624Z,20.95
2023-03-11T12:25:02.701Z,33.80
2023-03-11T12:27:32.993Z,20.65
2023-03-11T12:30:05.112Z,30.23
2023-03-11T12:32:44.049Z,31.17
2023-03-11T12:35:24.157Z,30.20
2023-03-11T12:38:00.217Z,28.40
2023-03-11T12:40:59.546Z,30.95
2023-03-11T12:43:35.674Z,30.15
2023-03-11T12:46:04.518Z,32.65
2023-03-11T12:48:50.444Z,21.55
2023-03-11T12:51:26.612Z,29.65
2023-03-11T12:53:55.225Z,26.10
2023-03-11T12:56:43.525Z,29.27
2023-03-11T12:59:22.401Z,30.23
2023-03-11T13:02:10.556Z,26.55
2023-03-11T13:04:57.927Z,27.08
2023-03-11T13:07:36.484Z,27.27
2023-03-11T13:10:35.879Z,20.35
2023-03-11T13:13:22.147Z,24.15
2023-03-11T13:15:50.685Z,19.35
2023-03-11T13:18:47.749Z,22.15
2023-03-11T13:21:32.675Z,20.27
2023-03-11T13:24:25.866Z,26.08
2023-03-11T13:27:05.044Z,25.77
2023-03-11T13:29:47.476Z,22.60
2023-03-11T13:32:32.594Z,29.20
2023-03-11T13:35:33.883Z,28.15
2023-03-11T13:38:31.295Z,28.00
2023-03-11T13:41:00.679Z,27.60
2023-03-11T13:43:27.670Z,21.67
2023-03-11T13:46:00.637Z,21.85
2023-03-11T13:48:48.132Z,22.05
2023-03-11T13:51:45.713Z,23.67
2023-03-11T13:54:20.187Z,16.92
2023-03-11T13:56:54.071Z,23.27
2023-03-11T13:59:31.453Z,20.05
2023-03-11T14:02:18.791Z,23.58
2023-03-11T14:04:56.660Z,16.40
2023-03-11T14:07:28.561Z,23.23
2023-03-11T14:10:14.294Z,17.20
2023-03-11T14:12:41.326Z,26.77
2023-03-11T14:15:09.704Z,16.27
2023-03-11T14:17:36.714Z,23.33
2023-03-11T14:20:11.840Z,21.23
2023-03-11T14:25:09.231Z,18.33
2023-03-11T14:27:39.349Z,19.23
2023-03-11T14:30:07.016Z,18.60
2023-03-11T14:32:35.022Z,19.90
2023-03-11T14:35:02.518Z,14.10
2023-03-11T14:37:34.212Z,19.02
2023-03-11T14:40:02.073Z,26.45
2023-03-11T14:42:39.168Z,23.25
2023-03-11T14:45:15.402Z,18.77
2023-03-11T14:47:53.800Z,20.48
2023-03-11T14:50:24.293Z,20.92
2023-03-11T14:53:04.868Z,24.23
2023-03-11T14:55:42.108Z,21.13
2023-03-11T14:58:37.090Z,23.25
2023-03-11T15:01:15.767Z,28.55
2023-03-11T15:03:57.183Z,22.60
2023-03-11T15:06:27.745Z,17.65
2023-03-11T15:08:57.910Z,13.07
2023-03-11T15:11:28.385Z,20.85
2023-03-11T15:14:31.681Z,23.27
2023-03-11T15:17:41.258Z,20.20
2023-03-11T15:20:36.734Z,16.20
2023-03-11T15:23:06.005Z,18.50
2023-03-11T15:25:37.569Z,20.10
2023-03-11T15:28:30.460Z,19.17
2023-03-11T15:31:21.728Z,18.35
2023-03-11T15:33:51.780Z,16.20
2023-03-11T15:36:33.817Z,23.65
2023-03-11T15:39:32.664Z,17.67
2023-03-11T15:42:02.151Z,18.40
2023-03-11T15:44:52.651Z,17.40
2023-03-11T15:47:23.366Z,16.30
2023-03-11T15:49:51.010Z,26.88
2023-03-11T15:52:20.234Z,34.00
2023-03-11T15:54:55.413Z,36.08
2023-03-11T15:57:27.512Z,26.55
2023-03-11T15:59:56.233Z,26.40
2023-03-11T16:02:26.405Z,24.33
2023-03-11T16:04:53.672Z,22.10
2023-03-11T16:07:36.540Z,18.08
2023-03-11T16:10:07.551Z,13.93
2023-03-11T16:12:34.855Z,19.00
2023-03-11T16:15:02.248Z,17.38
2023-03-11T16:17:42.962Z,18.90
2023-03-11T16:20:15.902Z,31.67
2023-03-11T16:22:43.001Z,24.40
2023-03-11T16:25:38.518Z,16.98
2023-03-11T16:28:06.583Z,22.98
2023-03-11T16:30:34.970Z,17.23
2023-03-11T16:33:04.990Z,19.25
2023-03-11T16:35:32.691Z,19.58
2023-03-11T16:38:00.011Z,22.95
2023-03-11T16:40:29.020Z,21.30
2023-03-11T16:45:27.461Z,24.38
2023-03-11T16:47:54.514Z,23.15
2023-03-11T16:50:24.162Z,23.60
2023-03-11T16:52:52.783Z,20.23
2023-03-11T16:55:20.347Z,17.73
2023-03-11T16:57:47.506Z,19.42
2023-03-11T17:00:15.203Z,23.30
2023-03-11T17:02:42.322Z,29.52
2023-03-11T17:05:10.171Z,23.48
2023-03-11T17:07:39.575Z,22.80
2023-03-11T17:10:08.597Z,26.88
2023-03-11T17:12:36.081Z,22.05
2023-03-11T17:15:05.256Z,24.75
2023-03-11T17:17:32.406Z,24.38
2023-03-11T17:19:59.434Z,23.75
2023-03-11T17:22:26.419Z,35.25
2023-03-11T17:24:53.682Z,29.00
2023-03-11T17:27:20.654Z,31.25
2023-03-11T17:29:47.620Z,28.13
2023-03-11T17:32:17.557Z,27.05
2023-03-11T17:34:44.910Z,20.83
2023-03-11T17:37:12.132Z,18.02
2023-03-11T17:39:39.155Z,34.38
2023-03-11T17:42:06.251Z,36.05
2023-03-11T17:44:50.264Z,31.85
2023-03-11T17:47:19.858Z,32.60
2023-03-11T17:49:47.921Z,43.53
2023-03-11T17:52:14.891Z,40.47
2023-03-11T17:54:42.297Z,33.35
2023-03-11T17:57:09.286Z,42.70
2023-03-11T17:59:36.338Z,39.33
2023-03-11T18:02:03.387Z,31.02
2023-03-11T18:04:30.387Z,32.03
2023-03-11T18:06:57.458Z,26.20
2023-03-11T18:09:24.428Z,22.63
2023-03-11T18:11:51.412Z,28.65
2023-03-11T18:14:18.436Z,31.83
2023-03-11T18:16:45.424Z,32.58
2023-03-11T18:19:12.482Z,25.33
2023-03-11T18:21:39.478Z,27.35
2023-03-11T18:24:07.019Z,33.45
2023-03-11T18:26:34.043Z,26.77
2023-03-11T18:29:01.680Z,27.27
2023-03-11T18:31:30.054Z,30.92
2023-03-11T18:34:02.599Z,30.50
2023-03-11T18:36:32.372Z,26.50
2023-03-11T18:39:00.725Z,28.17
2023-03-11T18:41:31.033Z,26.35
2023-03-11T18:43:58.755Z,22.17
2023-03-11T18:46:28.443Z,21.67
2023-03-11T18:48:59.598Z,23.67
2023-03-11T18:51:28.212Z,19.02
2023-03-11T18:53:55.543Z,24.63
2023-03-11T18:56:22.725Z,27.25
2023-03-11T18:58:49.773Z,28.92
2023-03-11T19:01:19.689Z,22.88
2023-03-11T19:03:52.107Z,22.08
2023-03-11T19:06:19.587Z,23.02
2023-03-11T19:08:46.734Z,24.80
2023-03-11T19:11:18.117Z,15.70
2023-03-11T19:13:47.711Z,23.73
2023-03-11T19:16:18.592Z,23.95
2023-03-11T19:18:46.425Z,25.67
2023-03-11T19:21:14.747Z,24.73
2023-03-11T19:23:41.894Z,13.75
2023-03-11T19:26:09.173Z,18.15
2023-03-11T19:28:36.367Z,16.10
2023-03-11T19:31:05.195Z,19.50
2023-03-11T19:33:32.620Z,13.82
2023-03-11T19:36:05.607Z,19.20
2023-03-11T19:41:10.668Z,16.33
2023-03-11T19:43:37.965Z,21.63
2023-03-11T19:46:07.023Z,19.45
2023-03-11T19:48:35.512Z,20.70
2023-03-11T19:51:03.151Z,18.95
2023-03-11T19:53:30.271Z,21.40
2023-03-11T19:55:57.426Z,19.88
2023-03-11T19:58:29.933Z,16.55
2023-03-11T20:00:58.966Z,20.00
2023-03-11T20:03:26.862Z,17.98
2023-03-11T20:05:56.717Z,13.65
2023-03-11T20:08:25.429Z,18.27
2023-03-11T20:10:53.663Z,24.25
2023-03-11T20:13:22.337Z,19.17
2023-03-11T20:15:50.186Z,20.70
2023-03-11T20:18:18.201Z,22.85
2023-03-11T20:20:47.040Z,19.80
2023-03-11T20:23:14.248Z,20.75
2023-03-11T20:25:42.044Z,17.30
2023-03-11T20:28:09.670Z,15.20
2023-03-11T20:30:38.839Z,17.98
2023-03-11T20:35:34.012Z,20.95
2023-03-11T20:38:02.744Z,31.75
2023-03-11T20:40:30.154Z,18.77
2023-03-11T20:42:57.304Z,23.85
2023-03-11T20:45:24.564Z,16.25
2023-03-11T20:47:53.696Z,15.60
2023-03-11T20:52:48.218Z,14.88
2023-03-11T20:55:15.293Z,15.07
2023-03-11T20:57:42.428Z,16.35
2023-03-11T21:00:12.261Z,15.70
2023-03-11T21:02:41.341Z,17.27
2023-03-11T21:05:10.203Z,13.38
2023-03-11T21:07:37.601Z,13.70
2023-03-11T21:10:07.261Z,12.30
2023-03-11T21:12:34.362Z,12.75
2023-03-11T21:15:01.510Z,15.68
2023-03-11T21:17:28.694Z,12.88
2023-03-11T21:19:55.681Z,12.45
2023-03-11T21:22:22.784Z,13.20
2023-03-11T21:24:53.863Z,16.98
2023-03-11T21:27:26.311Z,14.73
2023-03-11T21:29:57.925Z,9.43
2023-03-11T21:32:26.536Z,8.73
2023-03-11T21:34:58.671Z,15.73
2023-03-11T21:37:26.711Z,16.02
2023-03-11T21:39:54.609Z,15.90
2023-03-11T21:42:21.927Z,15.52
2023-03-11T21:44:51.344Z,12.30
2023-03-11T21:47:19.308Z,16.42
2023-03-11T21:49:46.328Z,12.15
2023-03-11T21:52:13.376Z,10.60
2023-03-11T21:54:40.433Z,14.07
2023-03-11T21:57:07.527Z,14.00
2023-03-11T21:59:34.577Z,10.57
2023-03-11T22:02:03.347Z,10.57
2023-03-11T22:04:31.762Z,15.60
2023-03-11T22:06:59.261Z,12.25
2023-03-11T22:09:26.772Z,11.20
2023-03-11T22:11:56.383Z,13.48
2023-03-11T22:14:24.207Z,14.55
2023-03-11T22:16:52.127Z,12.13
2023-03-11T22:19:19.595Z,14.93
2023-03-11T22:21:48.574Z,13.65
2023-03-11T22:24:16.576Z,10.32
2023-03-11T22:26:43.777Z,13.38
2023-03-11T22:29:13.460Z,14.55
2023-03-11T22:31:41.192Z,13.25
2023-03-11T22:34:08.350Z,17.27
2023-03-11T22:36:35.469Z,11.88
2023-03-11T22:39:04.508Z,11.38
2023-03-11T22:41:32.122Z,15.93
2023-03-11T22:43:59.381Z,14.98
2023-03-11T22:46:26.721Z,14.05
2023-03-11T22:48:53.980Z,12.35
2023-03-11T22:51:21.291Z,17.50
2023-03-11T22:53:48.390Z,21.13
2023-03-11T22:56:17.096Z,13.35
2023-03-11T22:58:44.760Z,14.38
2023-03-11T23:01:12.221Z,14.65
2023-03-11T23:03:40.291Z,13.48
2023-03-11T23:06:11.064Z,11.82
2023-03-11T23:08:38.370Z,13.43
2023-03-11T23:11:07.880Z,15.05
2023-03-11T23:13:36.086Z,15.02
2023-03-11T23:16:05.874Z,9.65
2023-03-11T23:18:33.766Z,12.40
2023-03-11T23:21:00.966Z,18.35
2023-03-11T23:23:28.552Z,11.23
2023-03-11T23:25:55.763Z,11.90
2023-03-11T23:28:22.955Z,14.18
2023-03-11T23:30:50.139Z,15.38
2023-03-11T23:33:17.286Z,19.30
2023-03-11T23:35:44.401Z,12.07
2023-03-11T23:38:11.557Z,10.45
2023-03-11T23:40:40.960Z,16.77
2023-03-11T23:43:08.191Z,18.17
2023-03-11T23:45:35.490Z,14.88
2023-03-11T23:48:02.654Z,11.88
2023-03-11T23:50:29.748Z,12.50
2023-03-11T23:52:56.836Z,17.88
2023-03-11T23:55:23.980Z,11.45
2023-03-11T23:57:51.124Z,13.27
